SANE/SDE METAR and TAF weather

Enter ICAO airport designator
Station Type Date Time Source
SANE METAR 2022/06/27 10:10 UTC NOAA

SANE 271010Z 18002KT 1500 BR BKN010 BKN020 10/09 Q1016


Station Type Date Time Source
SANE Decoded METAR 2022/06/27 10:10 UTC NOAA

Santiago Del Estero Aero., Argentina (SANE) 27-46S 064-18W 199M
Jun 27, 2022 - 06:10 AM EDT / 2022.06.27 1010 UTC
Wind: from the S (180 degrees) at 2 MPH (2 KT):0
Visibility: less than 1 mile:0
Sky conditions: mostly cloudy
Weather: mist
Temperature: 50 F (10 C)
Dew Point: 48 F (9 C)
Relative Humidity: 93%
Pressure (altimeter): 30.00 in. Hg (1016 hPa)
ob: SANE 271010Z 18002KT 1500 BR BKN010 BKN020 10/09 Q1016
cycle: 10

Station Type Date Time Source
SANE TAF 2022/04/21 12:15 UTC NOAA

TAF TAF SANE 211100Z 2112/2212 05005KT 9999 SCT035 FEW040 TX27/2119Z TN17/2210Z
BECMG 2203/2206 02005KT SCT035
BECMG 2209/2212 VRB03KT 9999 BKN025

Example: see airport list